Time;durP1;ratioP1;P1;durP2;ratioP2;P2;SDS_P1;SDS_P2;PMS_P1;PMS_P2;Temp;Humidity;BMP_temperature;BMP_pressure;BME280_temperature;BME280_humidity;BME280_pressure;Samples;Min_cycle;Max_cycle;Signal;HPM_P1;HPM_P2
2021/07/05 00:00:54;;;;;;;64.32;5.32;;;;;;;;;;5072487;28;20021;-49
2021/07/05 00:03:20;;;;;;;57.78;3.00;;;;;;;;;;5070629;28;20031;-49
2021/07/05 00:05:46;;;;;;;5.88;1.40;;;;;;;;;;5073115;28;20036;-49
2021/07/05 00:08:12;;;;;;;79.85;4.05;;;;;;;;;;5072607;28;20456;-49
2021/07/05 00:10:38;;;;;;;9.07;1.70;;;;;;;;;;5071687;28;20027;-49
2021/07/05 00:13:05;;;;;;;10.63;1.80;;;;;;;;;;5071549;28;20028;-49
2021/07/05 00:15:32;;;;;;;1.70;1.60;;;;;;;;;;5072217;28;20063;-49
2021/07/05 00:18:03;;;;;;;1.95;1.40;;;;;;;;;;5072452;28;20028;-48
2021/07/05 00:20:34;;;;;;;6.90;1.98;;;;;;;;;;5072095;28;20066;-49
2021/07/05 00:23:00;;;;;;;10.85;1.90;;;;;;;;;;5071210;28;20523;-49
2021/07/05 00:25:26;;;;;;;1.60;1.20;;;;;;;;;;5071791;28;20071;-49
2021/07/05 00:27:52;;;;;;;2.05;1.10;;;;;;;;;;5052571;28;20028;-49
2021/07/05 00:30:19;;;;;;;2.40;1.60;;;;;;;;;;5052189;28;20466;-49
2021/07/05 00:32:46;;;;;;;4.03;1.40;;;;;;;;;;5051877;28;20025;-49
2021/07/05 00:35:12;;;;;;;10.55;1.98;;;;;;;;;;5053728;28;20460;-49
2021/07/05 00:37:39;;;;;;;27.77;2.08;;;;;;;;;;5052753;28;20088;-49
2021/07/05 00:40:06;;;;;;;2.90;1.63;;;;;;;;;;5050674;28;20021;-49
2021/07/05 00:42:32;;;;;;;1.35;1.17;;;;;;;;;;5051772;28;20021;-49
2021/07/05 00:44:58;;;;;;;2.38;1.20;;;;;;;;;;5053726;28;20033;-49
2021/07/05 00:47:24;;;;;;;2.50;1.70;;;;;;;;;;5052451;28;20368;-49
2021/07/05 00:49:50;;;;;;;1.83;1.50;;;;;;;;;;5058462;28;20028;-48
2021/07/05 00:52:16;;;;;;;2.00;1.45;;;;;;;;;;5071851;28;20025;-49
2021/07/05 00:54:43;;;;;;;1.60;1.38;;;;;;;;;;5062025;28;20025;-49
2021/07/05 00:57:20;;;;;;;7.65;1.52;;;;;;;;;;5051976;28;20487;-49
2021/07/05 00:59:49;;;;;;;1.65;1.55;;;;;;;;;;5052241;28;20036;-49
2021/07/05 01:02:16;;;;;;;3.30;2.03;;;;;;;;;;5051680;28;20356;-49
2021/07/05 01:04:42;;;;;;;7.25;1.70;;;;;;;;;;5053472;28;20410;-49
2021/07/05 01:07:08;;;;;;;3.15;1.80;;;;;;;;;;5052328;28;20131;-49
2021/07/05 01:09:34;;;;;;;3.00;1.88;;;;;;;;;;5051567;28;20112;-49
2021/07/05 01:12:00;;;;;;;3.55;2.33;;;;;;;;;;5069600;28;20116;-49
2021/07/05 01:14:26;;;;;;;2.42;1.92;;;;;;;;;;5072472;28;20023;-49
2021/07/05 01:16:52;;;;;;;2.20;1.70;;;;;;;;;;5054766;28;20041;-49
2021/07/05 01:19:18;;;;;;;9.60;2.38;;;;;;;;;;5052094;28;20063;-49
2021/07/05 01:21:44;;;;;;;2.67;1.95;;;;;;;;;;5053995;28;20039;-49
2021/07/05 01:24:10;;;;;;;3.95;1.40;;;;;;;;;;5071744;28;20470;-49
2021/07/05 01:26:36;;;;;;;2.90;1.65;;;;;;;;;;5070067;28;20033;-49
2021/07/05 01:29:02;;;;;;;2.08;1.70;;;;;;;;;;5074496;28;20020;-48
2021/07/05 01:31:28;;;;;;;4.93;2.05;;;;;;;;;;5074193;28;20525;-49
2021/07/05 01:33:55;;;;;;;2.47;1.80;;;;;;;;;;5075309;28;20024;-49
2021/07/05 01:36:21;;;;;;;8.68;1.77;;;;;;;;;;5073578;28;20032;-49
2021/07/05 01:38:51;;;;;;;6.72;1.67;;;;;;;;;;5073418;28;20036;-49
2021/07/05 01:41:18;;;;;;;5.63;1.90;;;;;;;;;;5074679;28;20029;-49
2021/07/05 01:43:44;;;;;;;6.25;1.65;;;;;;;;;;5067439;28;20033;-49
2021/07/05 01:46:10;;;;;;;4.03;1.70;;;;;;;;;;5055815;28;20352;-49
2021/07/05 01:48:36;;;;;;;2.33;1.67;;;;;;;;;;5054939;28;20175;-49
2021/07/05 01:51:02;;;;;;;3.28;2.25;;;;;;;;;;5069879;28;20476;-49
2021/07/05 01:53:28;;;;;;;2.97;1.85;;;;;;;;;;5075478;28;20027;-48
2021/07/05 01:55:54;;;;;;;9.38;2.83;;;;;;;;;;5075197;28;20029;-49
2021/07/05 01:58:20;;;;;;;3.80;2.13;;;;;;;;;;5065836;28;20033;-49
2021/07/05 02:00:47;;;;;;;5.13;1.77;;;;;;;;;;5053504;28;20037;-50
2021/07/05 02:03:14;;;;;;;4.57;1.92;;;;;;;;;;5054770;28;20359;-49
2021/07/05 02:05:40;;;;;;;1.95;1.73;;;;;;;;;;5054350;28;20428;-49
2021/07/05 02:08:07;;;;;;;3.38;1.60;;;;;;;;;;5056154;28;20060;-49
2021/07/05 02:10:34;;;;;;;2.88;1.63;;;;;;;;;;5054424;28;20049;-49
2021/07/05 02:13:03;;;;;;;2.70;1.42;;;;;;;;;;5054875;28;20068;-49
2021/07/05 02:15:29;;;;;;;4.45;1.58;;;;;;;;;;5057930;28;20142;-49
2021/07/05 02:17:55;;;;;;;4.18;1.73;;;;;;;;;;5074497;28;20028;-49
2021/07/05 02:20:22;;;;;;;6.38;2.25;;;;;;;;;;5073024;28;20031;-49
2021/07/05 02:22:51;;;;;;;5.05;2.33;;;;;;;;;;5073838;28;20070;-49
2021/07/05 02:25:26;;;;;;;5.80;1.88;;;;;;;;;;5065140;28;20036;-49
2021/07/05 02:27:52;;;;;;;6.25;1.65;;;;;;;;;;5054388;28;20045;-49
2021/07/05 02:30:20;;;;;;;1.90;1.70;;;;;;;;;;5055089;28;20460;-48
2021/07/05 02:32:46;;;;;;;1.98;1.48;;;;;;;;;;5053169;28;20048;-49
2021/07/05 02:35:14;;;;;;;5.75;2.67;;;;;;;;;;5074713;28;20052;-49
2021/07/05 02:37:40;;;;;;;3.00;2.00;;;;;;;;;;5074300;28;20408;-49
2021/07/05 02:40:07;;;;;;;2.90;1.75;;;;;;;;;;5070714;28;20057;-49
2021/07/05 02:42:34;;;;;;;4.05;1.65;;;;;;;;;;5072922;28;20457;-49
2021/07/05 02:45:00;;;;;;;9.05;2.28;;;;;;;;;;5056108;28;20443;-49
2021/07/05 02:47:26;;;;;;;5.72;1.80;;;;;;;;;;5054523;28;20041;-49
2021/07/05 02:49:52;;;;;;;5.72;2.25;;;;;;;;;;5059981;28;20164;-49
2021/07/05 02:52:18;;;;;;;3.15;2.33;;;;;;;;;;5058166;28;20043;-48
2021/07/05 02:54:44;;;;;;;3.83;2.33;;;;;;;;;;5053951;28;20522;-49
2021/07/05 02:57:28;;;;;;;3.80;2.55;;;;;;;;;;5054384;28;20029;-48
2021/07/05 02:59:56;;;;;;;4.38;3.08;;;;;;;;;;5053905;28;20025;-49
2021/07/05 03:02:22;;;;;;;4.00;2.70;;;;;;;;;;5054413;28;20380;-48
2021/07/05 03:04:48;;;;;;;3.95;2.33;;;;;;;;;;5053891;28;20028;-49
2021/07/05 03:07:16;;;;;;;6.40;3.00;;;;;;;;;;5054050;28;20568;-49
2021/07/05 03:09:42;;;;;;;6.88;3.50;;;;;;;;;;5062618;28;20029;-48
2021/07/05 03:12:11;;;;;;;7.32;3.53;;;;;;;;;;5071344;28;20025;-49
2021/07/05 03:14:37;;;;;;;6.78;3.58;;;;;;;;;;5073462;28;20028;-49
2021/07/05 03:17:03;;;;;;;5.70;3.15;;;;;;;;;;5073545;28;20028;-49
2021/07/05 03:19:30;;;;;;;6.00;3.00;;;;;;;;;;5073555;28;20123;-49
2021/07/05 03:21:56;;;;;;;3.25;2.30;;;;;;;;;;5072466;28;20028;-49
2021/07/05 03:24:22;;;;;;;6.78;2.10;;;;;;;;;;5071372;28;20528;-48
2021/07/05 03:26:48;;;;;;;4.70;2.28;;;;;;;;;;5073575;28;20127;-48
2021/07/05 03:29:14;;;;;;;3.13;2.38;;;;;;;;;;5072804;28;20116;-49
2021/07/05 03:31:40;;;;;;;6.70;2.55;;;;;;;;;;5072833;28;20020;-49
2021/07/05 03:34:06;;;;;;;3.30;2.03;;;;;;;;;;5071204;28;20412;-48
2021/07/05 03:36:32;;;;;;;6.25;2.20;;;;;;;;;;5073102;28;20363;-49
2021/07/05 03:38:58;;;;;;;2.40;1.80;;;;;;;;;;5072932;28;20115;-49
2021/07/05 03:41:24;;;;;;;12.68;2.28;;;;;;;;;;5058284;28;20119;-49
2021/07/05 03:43:50;;;;;;;3.03;1.88;;;;;;;;;;5054550;28;20381;-49
2021/07/05 03:46:16;;;;;;;4.13;1.92;;;;;;;;;;5053382;28;20041;-49
2021/07/05 03:48:42;;;;;;;3.88;2.55;;;;;;;;;;5052593;28;20017;-49
2021/07/05 03:51:08;;;;;;;6.45;2.03;;;;;;;;;;5058271;28;20113;-49
2021/07/05 03:53:34;;;;;;;3.63;2.60;;;;;;;;;;5052932;28;20113;-49
2021/07/05 03:56:00;;;;;;;12.18;2.25;;;;;;;;;;5054381;28;20083;-49
2021/07/05 03:58:26;;;;;;;4.97;1.88;;;;;;;;;;5052917;28;20029;-49
2021/07/05 04:00:52;;;;;;;3.85;2.00;;;;;;;;;;5052246;28;20029;-49
2021/07/05 04:03:18;;;;;;;5.03;1.40;;;;;;;;;;5052691;28;20044;-49
2021/07/05 04:05:46;;;;;;;3.97;2.10;;;;;;;;;;5053995;28;20040;-49
2021/07/05 04:08:12;;;;;;;2.78;2.17;;;;;;;;;;5056889;28;20378;-49
2021/07/05 04:10:39;;;;;;;2.72;2.00;;;;;;;;;;5071909;28;20028;-49
2021/07/05 04:13:07;;;;;;;3.00;2.35;;;;;;;;;;5072743;28;20707;-49
2021/07/05 04:15:33;;;;;;;5.07;1.80;;;;;;;;;;5071000;28;20041;-49
2021/07/05 04:17:59;;;;;;;2.80;1.48;;;;;;;;;;5072210;28;20444;-49
2021/07/05 04:20:25;;;;;;;3.20;1.73;;;;;;;;;;5072414;28;20031;-49
2021/07/05 04:22:52;;;;;;;6.78;2.30;;;;;;;;;;5072306;28;20078;-49
2021/07/05 04:25:19;;;;;;;2.97;1.70;;;;;;;;;;5072442;28;20532;-49
2021/07/05 04:27:46;;;;;;;4.72;1.90;;;;;;;;;;5059048;28;20044;-49
2021/07/05 04:30:13;;;;;;;4.63;2.53;;;;;;;;;;5069165;28;20025;-49
2021/07/05 04:32:39;;;;;;;9.55;2.10;;;;;;;;;;5071614;28;20036;-49
2021/07/05 04:35:07;;;;;;;9.73;2.30;;;;;;;;;;5059926;28;20029;-49
2021/07/05 04:37:33;;;;;;;4.35;2.13;;;;;;;;;;5063396;28;20028;-49
2021/07/05 04:39:59;;;;;;;3.00;1.92;;;;;;;;;;5072260;28;20067;-49
2021/07/05 04:42:25;;;;;;;2.45;1.88;;;;;;;;;;5071881;28;20060;-49
2021/07/05 04:44:51;;;;;;;4.40;2.10;;;;;;;;;;5072308;28;20336;-49
2021/07/05 04:47:18;;;;;;;7.40;2.15;;;;;;;;;;5070300;28;20040;-49
2021/07/05 04:49:44;;;;;;;5.38;2.28;;;;;;;;;;5071646;28;20025;-49
2021/07/05 04:52:10;;;;;;;6.10;2.45;;;;;;;;;;5051578;28;20106;-49
2021/07/05 04:54:36;;;;;;;3.25;2.42;;;;;;;;;;5052707;28;20068;-49
2021/07/05 04:57:03;;;;;;;2.45;2.08;;;;;;;;;;5052485;28;20036;-49
2021/07/05 04:59:30;;;;;;;8.98;2.65;;;;;;;;;;5053002;28;20021;-49
2021/07/05 05:01:56;;;;;;;3.58;2.08;;;;;;;;;;5053483;28;20032;-49
2021/07/05 05:04:22;;;;;;;7.18;2.40;;;;;;;;;;5056072;28;20021;-49
2021/07/05 05:06:48;;;;;;;3.90;2.30;;;;;;;;;;5055782;28;20487;-49
2021/07/05 05:09:14;;;;;;;5.53;2.45;;;;;;;;;;5057207;28;20029;-49
2021/07/05 05:11:40;;;;;;;2.90;2.28;;;;;;;;;;5064694;28;20089;-49
2021/07/05 05:14:06;;;;;;;3.10;1.88;;;;;;;;;;5061671;28;20398;-49
2021/07/05 05:16:32;;;;;;;3.00;2.20;;;;;;;;;;5063362;28;20033;-49
2021/07/05 05:18:58;;;;;;;3.75;2.30;;;;;;;;;;5066702;28;20036;-50
2021/07/05 05:21:24;;;;;;;2.90;2.10;;;;;;;;;;5069838;28;20090;-49
2021/07/05 05:23:50;;;;;;;13.30;2.10;;;;;;;;;;5066553;28;20430;-49
2021/07/05 05:26:16;;;;;;;6.03;1.98;;;;;;;;;;5056809;28;20127;-49
2021/07/05 05:28:42;;;;;;;6.60;2.00;;;;;;;;;;5056544;28;20029;-51
2021/07/05 05:31:08;;;;;;;4.82;1.98;;;;;;;;;;5054913;28;20017;-50
2021/07/05 05:33:34;;;;;;;2.58;1.80;;;;;;;;;;5057018;28;20043;-49
2021/07/05 05:36:00;;;;;;;1.95;1.73;;;;;;;;;;5055701;28;20448;-49
2021/07/05 05:38:26;;;;;;;4.05;1.75;;;;;;;;;;5054855;28;20357;-49
2021/07/05 05:40:52;;;;;;;1.35;1.23;;;;;;;;;;5052831;28;20043;-49
2021/07/05 05:43:18;;;;;;;4.63;1.60;;;;;;;;;;5053918;28;20033;-50
2021/07/05 05:45:44;;;;;;;6.32;1.52;;;;;;;;;;5054545;28;20029;-49
2021/07/05 05:48:10;;;;;;;1.75;1.27;;;;;;;;;;5055234;28;20182;-49
2021/07/05 05:50:36;;;;;;;1.48;1.23;;;;;;;;;;5067168;28;20023;-49
2021/07/05 05:53:02;;;;;;;2.13;1.27;;;;;;;;;;5075152;28;20024;-49
2021/07/05 05:55:28;;;;;;;2.88;1.30;;;;;;;;;;5075208;28;20024;-49
2021/07/05 05:57:54;;;;;;;10.27;2.00;;;;;;;;;;5074801;28;20029;-49
2021/07/05 06:00:23;;;;;;;2.28;1.35;;;;;;;;;;5075197;28;20025;-49
2021/07/05 06:02:50;;;;;;;1.73;1.17;;;;;;;;;;5074612;28;20078;-49
2021/07/05 06:05:16;;;;;;;3.53;1.38;;;;;;;;;;5074807;28;20333;-50
2021/07/05 06:07:50;;;;;;;9.75;1.17;;;;;;;;;;5074823;28;20445;-49
2021/07/05 06:10:16;;;;;;;1.67;1.38;;;;;;;;;;5074945;28;20028;-49
2021/07/05 06:12:43;;;;;;;2.50;1.27;;;;;;;;;;5073980;28;20032;-49
2021/07/05 06:15:09;;;;;;;14.07;1.90;;;;;;;;;;5074335;28;20108;-49
2021/07/05 06:17:35;;;;;;;1.85;1.20;;;;;;;;;;5074732;28;20198;-49
2021/07/05 06:20:02;;;;;;;2.40;1.38;;;;;;;;;;5074632;28;20036;-49
2021/07/05 06:22:38;;;;;;;1.50;1.40;;;;;;;;;;5073921;28;20455;-50
2021/07/05 06:25:04;;;;;;;2.10;1.35;;;;;;;;;;5074228;28;20033;-50
2021/07/05 06:27:30;;;;;;;4.75;1.73;;;;;;;;;;5074673;28;20036;-50
2021/07/05 06:29:56;;;;;;;6.97;1.20;;;;;;;;;;5074547;28;20454;-50
2021/07/05 06:32:22;;;;;;;8.88;1.40;;;;;;;;;;5073788;28;20036;-49
2021/07/05 06:34:48;;;;;;;5.03;1.48;;;;;;;;;;5074603;28;20116;-49
2021/07/05 06:37:14;;;;;;;4.15;1.20;;;;;;;;;;5074315;28;20036;-50
2021/07/05 06:39:40;;;;;;;11.38;1.77;;;;;;;;;;5073844;28;20020;-49
2021/07/05 06:42:06;;;;;;;9.63;1.42;;;;;;;;;;5073498;28;20428;-49
2021/07/05 06:44:33;;;;;;;2.40;1.30;;;;;;;;;;5074253;28;20440;-49
2021/07/05 06:46:59;;;;;;;1.77;1.30;;;;;;;;;;5074094;28;20040;-50
2021/07/05 06:49:25;;;;;;;1.25;1.20;;;;;;;;;;5074033;28;20370;-49
2021/07/05 06:51:51;;;;;;;12.80;1.67;;;;;;;;;;5073432;28;20487;-50
2021/07/05 06:54:17;;;;;;;1.88;0.93;;;;;;;;;;5073428;28;20020;-49
2021/07/05 06:56:43;;;;;;;2.42;1.17;;;;;;;;;;5074296;28;20116;-49
2021/07/05 06:59:09;;;;;;;6.45;1.30;;;;;;;;;;5073938;28;20021;-49
2021/07/05 07:01:35;;;;;;;1.98;1.40;;;;;;;;;;5073327;28;20032;-49
2021/07/05 07:04:01;;;;;;;1.23;1.13;;;;;;;;;;5073787;28;20029;-49
2021/07/05 07:06:27;;;;;;;1.45;1.20;;;;;;;;;;5073459;28;20060;-49
2021/07/05 07:08:53;;;;;;;4.03;1.02;;;;;;;;;;5073295;28;20028;-49
2021/07/05 07:11:20;;;;;;;4.15;1.48;;;;;;;;;;5072929;28;20157;-49
2021/07/05 07:13:46;;;;;;;1.00;1.00;;;;;;;;;;5074063;28;20020;-50
2021/07/05 07:16:14;;;;;;;3.40;1.52;;;;;;;;;;5073643;28;20095;-49
2021/07/05 07:18:59;;;;;;;1.35;1.10;;;;;;;;;;5073655;28;20040;-50
2021/07/05 07:21:25;;;;;;;3.17;1.30;;;;;;;;;;5072217;28;20043;-50
2021/07/05 07:23:52;;;;;;;2.67;1.30;;;;;;;;;;5073821;28;20089;-49
2021/07/05 07:26:19;;;;;;;8.40;1.30;;;;;;;;;;5072412;28;20453;-49
2021/07/05 07:28:50;;;;;;;6.38;1.17;;;;;;;;;;5073566;28;20037;-49
2021/07/05 07:31:16;;;;;;;5.00;1.08;;;;;;;;;;5072546;28;20028;-50
2021/07/05 07:33:42;;;;;;;2.55;0.95;;;;;;;;;;5073362;28;20489;-49
2021/07/05 07:36:09;;;;;;;1.00;0.80;;;;;;;;;;5072875;28;20024;-50
2021/07/05 07:39:11;;;;;;;3.53;1.40;;;;;;;;;;5073493;28;20099;-49
2021/07/05 07:41:31;;;;;;;6.13;1.20;;;;;;;;;;5069253;28;20404;-49
2021/07/05 07:43:57;;;;;;;11.27;1.58;;;;;;;;;;5072817;28;20459;-49
2021/07/05 07:46:23;;;;;;;1.08;0.98;;;;;;;;;;5072602;28;20075;-50
2021/07/05 07:48:49;;;;;;;5.25;1.20;;;;;;;;;;5073180;28;20037;-49
2021/07/05 07:51:15;;;;;;;6.32;1.15;;;;;;;;;;5071936;28;20020;-49
2021/07/05 07:53:41;;;;;;;24.20;1.48;;;;;;;;;;5072931;28;20127;-49
2021/07/05 07:56:07;;;;;;;2.25;0.90;;;;;;;;;;5073021;28;20115;-49
2021/07/05 07:58:33;;;;;;;1.17;1.02;;;;;;;;;;5073086;28;20026;-49
2021/07/05 08:00:59;;;;;;;10.65;1.40;;;;;;;;;;5071936;28;20036;-50
2021/07/05 08:03:26;;;;;;;12.02;1.67;;;;;;;;;;5072904;28;20024;-49
2021/07/05 08:05:54;;;;;;;7.78;1.40;;;;;;;;;;5071818;28;20054;-50
2021/07/05 08:08:20;;;;;;;5.93;1.17;;;;;;;;;;5072629;28;20032;-49
2021/07/05 08:10:47;;;;;;;12.65;1.20;;;;;;;;;;5072244;28;20104;-50
2021/07/05 08:13:13;;;;;;;1.75;1.10;;;;;;;;;;5072788;28;20100;-49
2021/07/05 08:15:39;;;;;;;1.73;1.05;;;;;;;;;;5072967;28;20079;-49
2021/07/05 08:18:05;;;;;;;4.43;0.98;;;;;;;;;;5072565;28;20383;-49
2021/07/05 08:20:31;;;;;;;2.58;1.48;;;;;;;;;;5072116;28;20041;-49
2021/07/05 08:22:57;;;;;;;10.95;1.20;;;;;;;;;;5072309;28;20040;-49
2021/07/05 08:25:25;;;;;;;5.63;1.70;;;;;;;;;;5072499;28;20403;-49
2021/07/05 08:27:51;;;;;;;2.47;1.17;;;;;;;;;;5071962;28;20029;-49
2021/07/05 08:30:22;;;;;;;2.85;0.80;;;;;;;;;;5073138;28;20028;-49
2021/07/05 08:32:48;;;;;;;;;;;;;;;;;;5072760;28;20023;-49
2021/07/05 08:35:14;;;;;;;1.92;1.00;;;;;;;;;;5072649;28;20251;-49
2021/07/05 08:37:40;;;;;;;0.63;0.63;;;;;;;;;;5074548;28;20185;-49
2021/07/05 08:40:08;;;;;;;2.78;0.93;;;;;;;;;;5076684;28;20103;-49
2021/07/05 08:42:35;;;;;;;1.10;1.05;;;;;;;;;;5075815;28;20024;-49
2021/07/05 08:45:01;;;;;;;12.40;1.25;;;;;;;;;;5076736;28;20020;-49
2021/07/05 08:47:27;;;;;;;6.78;1.30;;;;;;;;;;5076192;28;20444;-49
2021/07/05 08:49:53;;;;;;;7.35;1.00;;;;;;;;;;5076410;28;20017;-49
2021/07/05 08:52:19;;;;;;;7.28;1.10;;;;;;;;;;5075449;28;20439;-49
2021/07/05 08:54:45;;;;;;;2.33;1.40;;;;;;;;;;5075954;28;20436;-49
2021/07/05 08:57:27;;;;;;;2.80;1.08;;;;;;;;;;5076358;28;20032;-49
2021/07/05 08:59:53;;;;;;;11.80;1.60;;;;;;;;;;5076493;28;20103;-49
2021/07/05 09:02:20;;;;;;;39.75;2.17;;;;;;;;;;5075510;28;20111;-49
2021/07/05 09:04:49;;;;;;;14.77;1.48;;;;;;;;;;5076638;28;20071;-49
2021/07/05 09:07:15;;;;;;;13.45;1.40;;;;;;;;;;5075806;28;20033;-49
2021/07/05 09:09:56;;;;;;;45.03;2.30;;;;;;;;;;5076027;28;20112;-50
2021/07/05 09:12:22;;;;;;;1.45;1.20;;;;;;;;;;5075357;28;20443;-49
2021/07/05 09:15:02;;;;;;;1.20;0.95;;;;;;;;;;5076267;28;20025;-49
2021/07/05 09:17:32;;;;;;;3.03;0.90;;;;;;;;;;5075985;28;20103;-49
2021/07/05 09:19:58;;;;;;;0.90;0.80;;;;;;;;;;5075746;28;20083;-50
2021/07/05 09:22:24;;;;;;;0.80;0.80;;;;;;;;;;5074588;28;20424;-49
2021/07/05 09:24:51;;;;;;;8.20;1.27;;;;;;;;;;5075654;28;20452;-49
2021/07/05 09:27:23;;;;;;;0.82;0.80;;;;;;;;;;5075280;28;20476;-49
2021/07/05 09:29:50;;;;;;;0.90;0.90;;;;;;;;;;5075320;28;20029;-49
2021/07/05 09:32:26;;;;;;;1.23;0.73;;;;;;;;;;5074849;28;20404;-49
2021/07/05 09:34:52;;;;;;;0.63;0.63;;;;;;;;;;5075509;28;20017;-49
2021/07/05 09:37:23;;;;;;;1.00;0.90;;;;;;;;;;5075394;28;20360;-49
2021/07/05 09:40:04;;;;;;;2.65;0.90;;;;;;;;;;5075592;28;20032;-49
2021/07/05 09:42:35;;;;;;;0.80;0.80;;;;;;;;;;5074671;28;20455;-49
2021/07/05 09:45:02;;;;;;;1.40;1.05;;;;;;;;;;5075190;28;20032;-49
2021/07/05 09:47:28;;;;;;;0.82;0.82;;;;;;;;;;5075110;28;20482;-50
2021/07/05 09:49:55;;;;;;;2.63;0.95;;;;;;;;;;5073942;28;20390;-49
2021/07/05 09:52:26;;;;;;;3.08;1.10;;;;;;;;;;5073295;28;20055;-49
2021/07/05 09:54:57;;;;;;;0.77;0.77;;;;;;;;;;5075380;28;20321;-49
2021/07/05 09:57:34;;;;;;;7.90;1.63;;;;;;;;;;5075274;28;20028;-49
2021/07/05 10:00:03;;;;;;;16.05;1.33;;;;;;;;;;5075237;28;20024;-49
2021/07/05 10:02:30;;;;;;;17.98;1.33;;;;;;;;;;5074302;28;20462;-49
2021/07/05 10:05:15;;;;;;;54.97;2.95;;;;;;;;;;5074959;28;20020;-49
2021/07/05 10:07:41;;;;;;;23.15;2.03;;;;;;;;;;5074844;28;20455;-49
2021/07/05 10:10:15;;;;;;;2.20;0.98;;;;;;;;;;5075067;28;20073;-50
2021/07/05 10:12:52;;;;;;;1.75;0.98;;;;;;;;;;5073965;28;20527;-49
2021/07/05 10:15:19;;;;;;;5.47;1.10;;;;;;;;;;5074679;28;20017;-49
2021/07/05 10:17:48;;;;;;;102.85;4.15;;;;;;;;;;5074717;28;20510;-49
2021/07/05 10:20:16;;;;;;;47.33;2.63;;;;;;;;;;5074719;28;20170;-49
2021/07/05 10:22:43;;;;;;;5.18;1.33;;;;;;;;;;5073985;28;20115;-49
2021/07/05 10:25:10;;;;;;;100.15;4.35;;;;;;;;;;5074604;28;20036;-49
2021/07/05 10:27:36;;;;;;;54.45;3.08;;;;;;;;;;5074708;28;20067;-49
2021/07/05 10:30:03;;;;;;;11.48;1.75;;;;;;;;;;5074131;28;20024;-50
2021/07/05 10:32:30;;;;;;;9.35;1.60;;;;;;;;;;5074144;28;20155;-49
2021/07/05 10:34:57;;;;;;;23.08;3.05;;;;;;;;;;5074526;28;20028;-49
2021/07/05 10:37:29;;;;;;;2.38;1.20;;;;;;;;;;5074660;28;20443;-49
2021/07/05 10:39:56;;;;;;;15.13;1.52;;;;;;;;;;5074182;28;20032;-49
2021/07/05 10:42:28;;;;;;;34.55;2.20;;;;;;;;;;5073483;28;20048;-49
2021/07/05 10:44:54;;;;;;;7.22;1.42;;;;;;;;;;5074618;28;20025;-49
2021/07/05 10:47:39;;;;;;;8.05;1.30;;;;;;;;;;5073955;28;20048;-49
2021/07/05 10:50:05;;;;;;;5.38;1.98;;;;;;;;;;5073907;28;20436;-50
2021/07/05 10:52:47;;;;;;;3.13;1.45;;;;;;;;;;5073167;28;20468;-49
2021/07/05 10:55:33;;;;;;;5.57;1.45;;;;;;;;;;5074206;28;20406;-49
2021/07/05 10:57:59;;;;;;;9.23;2.22;;;;;;;;;;5074110;28;20160;-49
2021/07/05 11:00:39;;;;;;;2.22;1.45;;;;;;;;;;5074149;28;20447;-49
2021/07/05 11:03:05;;;;;;;1.38;1.20;;;;;;;;;;5073826;28;20028;-49
2021/07/05 11:05:41;;;;;;;13.50;1.77;;;;;;;;;;5074145;28;20071;-49
2021/07/05 11:08:16;;;;;;;6.15;1.58;;;;;;;;;;5073807;28;20040;-49
2021/07/05 11:10:43;;;;;;;3.45;1.52;;;;;;;;;;5072779;28;20032;-49
2021/07/05 11:13:09;;;;;;;2.10;1.13;;;;;;;;;;5073702;28;20123;-50
2021/07/05 11:15:56;;;;;;;6.05;1.30;;;;;;;;;;5073836;28;20056;-49
2021/07/05 11:18:42;;;;;;;5.53;1.55;;;;;;;;;;5073219;28;20111;-49
2021/07/05 11:21:08;;;;;;;3.20;1.20;;;;;;;;;;5072683;28;20468;-49
2021/07/05 11:23:52;;;;;;;8.95;1.83;;;;;;;;;;5073709;28;20081;-49
2021/07/05 11:26:19;;;;;;;2.55;1.30;;;;;;;;;;5073206;28;20099;-50
2021/07/05 11:28:45;;;;;;;1.20;1.10;;;;;;;;;;5073347;28;20021;-50
2021/07/05 11:31:21;;;;;;;3.50;0.88;;;;;;;;;;5073033;28;20070;-49
2021/07/05 11:33:47;;;;;;;0.90;0.90;;;;;;;;;;5072894;28;20036;-49
2021/07/05 11:36:21;;;;;;;3.20;1.17;;;;;;;;;;5073458;28;20384;-50
2021/07/05 11:39:01;;;;;;;8.02;1.52;;;;;;;;;;5073048;28;20013;-49
2021/07/05 11:41:28;;;;;;;9.20;1.20;;;;;;;;;;5072494;28;20033;-50
2021/07/05 11:43:58;;;;;;;2.67;1.00;;;;;;;;;;5073222;28;20025;-50
2021/07/05 11:46:27;;;;;;;0.98;0.98;;;;;;;;;;5073488;28;20094;-49
2021/07/05 11:48:53;;;;;;;1.58;1.23;;;;;;;;;;5073025;28;20025;-50
2021/07/05 11:51:19;;;;;;;2.90;1.23;;;;;;;;;;5072714;28;20115;-49
2021/07/05 11:53:49;;;;;;;1.60;1.27;;;;;;;;;;5072839;28;20218;-49
2021/07/05 11:56:25;;;;;;;3.55;0.98;;;;;;;;;;5072787;28;20024;-49
2021/07/05 11:58:52;;;;;;;2.08;1.30;;;;;;;;;;5072816;28;20173;-49
2021/07/05 12:01:18;;;;;;;1.98;1.17;;;;;;;;;;5072199;28;20047;-49
2021/07/05 12:03:51;;;;;;;8.05;1.42;;;;;;;;;;5072603;28;20071;-49
2021/07/05 12:06:17;;;;;;;2.22;1.27;;;;;;;;;;5072925;28;20024;-49
2021/07/05 12:08:50;;;;;;;2.85;1.40;;;;;;;;;;5072573;28;20034;-49
2021/07/05 12:11:26;;;;;;;1.98;1.20;;;;;;;;;;5071255;28;20025;-49
2021/07/05 12:14:02;;;;;;;1.45;1.00;;;;;;;;;;5073132;28;20095;-49
2021/07/05 12:16:28;;;;;;;2.15;1.15;;;;;;;;;;5073181;28;20029;-49
2021/07/05 12:19:01;;;;;;;1.88;1.02;;;;;;;;;;5072617;28;20027;-49
2021/07/05 12:21:32;;;;;;;6.50;1.70;;;;;;;;;;5072055;28;20418;-49
2021/07/05 12:24:08;;;;;;;22.58;1.63;;;;;;;;;;5072749;28;20047;-50
2021/07/05 12:27:00;;;;;;;6.43;1.70;;;;;;;;;;5072028;28;20038;-49
2021/07/05 12:29:30;;;;;;;2.38;1.33;;;;;;;;;;5069886;28;20467;-50
2021/07/05 12:32:00;;;;;;;3.70;1.30;;;;;;;;;;5071847;28;20025;-49
2021/07/05 12:34:38;;;;;;;15.73;1.92;;;;;;;;;;5072408;28;20359;-49
2021/07/05 12:37:05;;;;;;;1.23;0.70;;;;;;;;;;5072043;28;20371;-50
2021/07/05 12:39:31;;;;;;;10.35;1.15;;;;;;;;;;5073107;28;20020;-50
2021/07/05 12:41:57;;;;;;;14.02;2.08;;;;;;;;;;5071696;28;20038;-50
2021/07/05 12:44:23;;;;;;;6.57;1.17;;;;;;;;;;5072035;28;20108;-50
2021/07/05 12:46:49;;;;;;;49.05;2.88;;;;;;;;;;5072443;28;20157;-49
2021/07/05 12:49:15;;;;;;;2.45;0.93;;;;;;;;;;5072296;28;20024;-49
2021/07/05 12:51:42;;;;;;;8.75;1.15;;;;;;;;;;5071717;28;20029;-49
2021/07/05 12:54:17;;;;;;;7.57;1.08;;;;;;;;;;5072760;28;20033;-49
2021/07/05 12:56:43;;;;;;;46.80;2.08;;;;;;;;;;5072263;28;20468;-49
2021/07/05 12:59:16;;;;;;;35.08;2.13;;;;;;;;;;5070744;28;20031;-49
2021/07/05 13:01:43;;;;;;;32.65;2.10;;;;;;;;;;5071399;28;20024;-49
2021/07/05 13:04:10;;;;;;;46.45;2.60;;;;;;;;;;5072019;28;20146;-49
2021/07/05 13:06:38;;;;;;;73.97;3.60;;;;;;;;;;5072184;28;20363;-49
2021/07/05 13:09:10;;;;;;;18.35;1.63;;;;;;;;;;5072079;28;20024;-49
2021/07/05 13:11:41;;;;;;;15.43;1.38;;;;;;;;;;5071547;28;20035;-49
2021/07/05 13:14:12;;;;;;;34.50;2.47;;;;;;;;;;5072166;28;20024;-49
2021/07/05 13:16:38;;;;;;;9.13;1.13;;;;;;;;;;5071793;28;20348;-49
2021/07/05 13:19:11;;;;;;;10.80;1.23;;;;;;;;;;5071942;28;20017;-50
2021/07/05 13:21:38;;;;;;;1.05;0.80;;;;;;;;;;5071688;28;20024;-50
2021/07/05 13:24:22;;;;;;;3.72;1.35;;;;;;;;;;5073664;28;20029;-49
2021/07/05 13:26:49;;;;;;;26.23;1.85;;;;;;;;;;5075748;28;20367;-49
2021/07/05 13:29:16;;;;;;;10.57;1.42;;;;;;;;;;5075224;28;20021;-50
2021/07/05 13:31:43;;;;;;;26.48;1.75;;;;;;;;;;5074885;28;20090;-49
2021/07/05 13:34:27;;;;;;;13.23;1.70;;;;;;;;;;5075429;28;20359;-49
2021/07/05 13:36:54;;;;;;;32.88;3.20;;;;;;;;;;5076066;28;20025;-49
2021/07/05 13:39:20;;;;;;;11.80;1.88;;;;;;;;;;5075562;28;20037;-49
2021/07/05 13:41:46;;;;;;;0.85;0.70;;;;;;;;;;5074177;28;20447;-50
2021/07/05 13:44:12;;;;;;;1.42;0.80;;;;;;;;;;5075755;28;20404;-50
2021/07/05 13:46:38;;;;;;;0.80;0.70;;;;;;;;;;5075644;28;20119;-50
2021/07/05 13:49:13;;;;;;;0.88;0.80;;;;;;;;;;5075632;28;20029;-50
2021/07/05 13:51:39;;;;;;;2.95;0.70;;;;;;;;;;5073456;28;20415;-49
2021/07/05 13:54:05;;;;;;;4.72;1.00;;;;;;;;;;5074077;28;20539;-49
2021/07/05 13:56:34;;;;;;;2.75;0.68;;;;;;;;;;5074703;28;20112;-49
2021/07/05 13:59:00;;;;;;;0.70;0.70;;;;;;;;;;5075157;28;20032;-50
2021/07/05 14:01:30;;;;;;;2.60;0.75;;;;;;;;;;5074532;28;20025;-49
2021/07/05 14:03:57;;;;;;;0.88;0.63;;;;;;;;;;5075635;28;20017;-50
2021/07/05 14:06:23;;;;;;;2.20;0.90;;;;;;;;;;5074586;28;20043;-49
2021/07/05 14:08:51;;;;;;;1.25;0.60;;;;;;;;;;5074986;28;20112;-49
2021/07/05 14:11:18;;;;;;;1.02;0.88;;;;;;;;;;5074428;28;20036;-49
2021/07/05 14:13:46;;;;;;;1.27;0.60;;;;;;;;;;5075108;28;20025;-49
2021/07/05 14:16:13;;;;;;;2.92;0.68;;;;;;;;;;5074999;28;20078;-49
2021/07/05 14:18:40;;;;;;;1.23;0.70;;;;;;;;;;5075035;28;20115;-50
2021/07/05 14:21:07;;;;;;;8.43;1.08;;;;;;;;;;5073446;28;20031;-50
2021/07/05 14:23:33;;;;;;;4.63;0.80;;;;;;;;;;5075075;28;20029;-50
2021/07/05 14:25:59;;;;;;;3.40;0.60;;;;;;;;;;5074794;28;20024;-50
2021/07/05 14:28:26;;;;;;;0.88;0.70;;;;;;;;;;5074542;28;20471;-49
2021/07/05 14:30:53;;;;;;;5.10;0.73;;;;;;;;;;5073455;28;20036;-49
2021/07/05 14:33:21;;;;;;;6.10;1.40;;;;;;;;;;5074739;28;20032;-49
2021/07/05 14:35:47;;;;;;;6.45;0.70;;;;;;;;;;5073743;28;20033;-50
2021/07/05 14:38:13;;;;;;;1.00;0.88;;;;;;;;;;5074784;28;20024;-50
2021/07/05 14:40:40;;;;;;;2.38;0.60;;;;;;;;;;5073915;28;20374;-49
2021/07/05 14:43:06;;;;;;;8.00;1.00;;;;;;;;;;5074190;28;20024;-49
2021/07/05 14:45:32;;;;;;;1.27;0.80;;;;;;;;;;5074432;28;20024;-49